createdAt,value
2022-10-07T00:01:40.712Z,15.97
2022-10-07T00:04:46.257Z,11.20
2022-10-07T00:07:49.346Z,12.20
2022-10-07T00:10:52.376Z,15.57
2022-10-07T00:13:59.186Z,14.27
2022-10-07T00:17:02.695Z,13.17
2022-10-07T00:20:07.048Z,11.70
2022-10-07T00:23:10.207Z,15.20
2022-10-07T00:26:50.756Z,9.50
2022-10-07T00:31:02.969Z,12.40
2022-10-07T00:34:36.784Z,9.20
2022-10-07T00:37:43.272Z,17.17
2022-10-07T00:40:47.270Z,12.47
2022-10-07T00:43:50.358Z,12.03
2022-10-07T00:46:55.302Z,11.37
2022-10-07T00:50:03.813Z,9.70
2022-10-07T00:53:07.296Z,11.27
2022-10-07T00:56:11.313Z,10.33
2022-10-07T00:59:16.554Z,10.60
2022-10-07T01:02:21.051Z,9.00
2022-10-07T01:05:24.354Z,10.93
2022-10-07T01:08:27.670Z,12.67
2022-10-07T01:11:44.768Z,9.93
2022-10-07T01:14:58.159Z,11.87
2022-10-07T01:18:11.372Z,13.57
2022-10-07T01:21:23.973Z,13.70
2022-10-07T01:25:11.122Z,13.77
2022-10-07T01:34:06.785Z,12.33
2022-10-07T01:41:56.749Z,14.27
2022-10-07T01:51:30.602Z,15.53
2022-10-07T01:59:16.089Z,8.40
2022-10-07T02:04:04.222Z,11.47
2022-10-07T02:16:51.482Z,12.03
2022-10-07T02:20:16.537Z,9.43
2022-10-07T02:33:13.958Z,12.40
2022-10-07T02:36:26.959Z,9.00
2022-10-07T02:40:51.492Z,11.60
2022-10-07T02:44:18.926Z,9.40
2022-10-07T02:47:31.971Z,14.07
2022-10-07T02:51:13.954Z,10.33
2022-10-07T02:54:36.604Z,8.30
2022-10-07T02:57:50.942Z,15.43
2022-10-07T03:01:00.563Z,12.47
2022-10-07T03:04:06.050Z,11.03
2022-10-07T03:07:10.069Z,11.47
2022-10-07T03:10:15.103Z,10.67
2022-10-07T03:13:19.932Z,14.30
2022-10-07T03:16:27.955Z,10.47
2022-10-07T03:19:31.304Z,12.17
2022-10-07T03:22:34.796Z,10.03
2022-10-07T03:25:37.778Z,11.13
2022-10-07T03:28:42.314Z,11.90
2022-10-07T03:31:45.610Z,12.70
2022-10-07T03:34:49.042Z,11.33
2022-10-07T03:37:52.079Z,12.50
2022-10-07T03:40:55.104Z,10.27
2022-10-07T03:43:59.744Z,11.33
2022-10-07T03:47:09.897Z,17.50
2022-10-07T03:50:14.030Z,13.80
2022-10-07T03:53:17.087Z,14.53
2022-10-07T03:56:20.068Z,14.57
2022-10-07T03:59:24.414Z,11.80
2022-10-07T04:02:27.436Z,14.90
2022-10-07T04:05:32.578Z,13.13
2022-10-07T04:08:36.801Z,13.43
2022-10-07T04:11:42.065Z,10.40
2022-10-07T04:14:46.886Z,10.83
2022-10-07T04:17:50.798Z,13.90
2022-10-07T04:20:55.846Z,13.53
2022-10-07T04:23:58.860Z,14.43
2022-10-07T04:27:05.058Z,13.00
2022-10-07T04:30:11.398Z,12.60
2022-10-07T04:33:14.686Z,12.87
2022-10-07T04:36:18.285Z,11.67
2022-10-07T04:39:56.045Z,14.53
2022-10-07T04:43:10.147Z,12.23
2022-10-07T04:46:14.888Z,13.60
2022-10-07T04:49:25.115Z,8.87
2022-10-07T04:52:29.618Z,9.10
2022-10-07T04:55:37.313Z,12.43
2022-10-07T04:58:40.925Z,10.30
2022-10-07T05:01:45.608Z,14.80
2022-10-07T05:04:49.324Z,12.93
2022-10-07T05:07:53.756Z,12.07
2022-10-07T05:10:59.399Z,14.13
2022-10-07T05:14:04.300Z,12.67
2022-10-07T05:17:10.226Z,15.10
2022-10-07T05:20:13.251Z,11.97
2022-10-07T05:23:18.430Z,14.73
2022-10-07T05:26:21.913Z,13.87
2022-10-07T05:29:30.015Z,10.83
2022-10-07T05:32:34.361Z,11.23
2022-10-07T05:35:37.589Z,15.73
2022-10-07T05:38:40.679Z,13.03
2022-10-07T05:41:46.604Z,11.33
2022-10-07T05:44:53.167Z,13.13
2022-10-07T05:47:58.328Z,17.13
2022-10-07T05:51:02.021Z,13.83
2022-10-07T05:54:06.862Z,18.10
2022-10-07T05:57:17.105Z,13.87
2022-10-07T06:00:20.944Z,18.63
2022-10-07T06:03:28.339Z,22.33
2022-10-07T06:06:33.113Z,14.27
2022-10-07T06:09:57.161Z,16.37
2022-10-07T06:13:09.142Z,14.30
2022-10-07T06:16:14.580Z,19.57
2022-10-07T06:19:22.698Z,18.00
2022-10-07T06:22:27.951Z,18.23
2022-10-07T06:25:31.140Z,12.97
2022-10-07T06:28:37.187Z,16.40
2022-10-07T06:31:40.619Z,16.40
2022-10-07T06:34:45.237Z,23.83
2022-10-07T06:37:49.152Z,16.47
2022-10-07T06:40:58.986Z,17.37
2022-10-07T06:44:04.391Z,20.97
2022-10-07T06:47:11.446Z,22.47
2022-10-07T06:50:17.483Z,13.67
2022-10-07T06:53:21.299Z,16.37
2022-10-07T06:56:24.504Z,15.10
2022-10-07T07:00:20.752Z,17.20
2022-10-07T07:11:55.619Z,16.70
2022-10-07T07:15:05.044Z,23.77
2022-10-07T07:18:11.371Z,15.97
2022-10-07T07:21:14.968Z,17.90
2022-10-07T07:24:20.825Z,18.03
2022-10-07T07:27:24.513Z,20.00
2022-10-07T07:30:28.150Z,16.20
2022-10-07T07:33:32.929Z,13.63
2022-10-07T07:36:37.130Z,14.60
2022-10-07T07:39:42.672Z,15.40
2022-10-07T07:42:49.341Z,13.93
2022-10-07T07:45:53.728Z,15.50
2022-10-07T07:48:58.450Z,16.50
2022-10-07T07:52:03.789Z,16.87
2022-10-07T07:55:13.037Z,14.73
2022-10-07T07:58:17.701Z,16.10
2022-10-07T08:01:20.826Z,13.00
2022-10-07T08:04:24.947Z,17.20
2022-10-07T08:07:28.178Z,16.27
2022-10-07T08:10:32.699Z,16.50
2022-10-07T08:13:37.908Z,16.30
2022-10-07T08:16:43.735Z,19.53
2022-10-07T08:19:46.886Z,12.87
2022-10-07T08:22:51.420Z,19.27
2022-10-07T08:25:57.871Z,17.57
2022-10-07T08:29:02.603Z,14.70
2022-10-07T08:32:06.841Z,12.60
2022-10-07T08:35:10.285Z,15.47
2022-10-07T08:38:14.576Z,11.27
2022-10-07T08:41:33.211Z,19.07
2022-10-07T08:44:41.268Z,17.63
2022-10-07T08:47:46.997Z,17.00
2022-10-07T08:50:59.079Z,17.40
2022-10-07T08:54:02.065Z,12.07
2022-10-07T08:57:16.186Z,9.27
2022-10-07T09:00:22.327Z,12.93
2022-10-07T09:03:38.070Z,11.00
2022-10-07T09:06:46.755Z,14.20
2022-10-07T09:09:54.949Z,13.80
2022-10-07T09:13:04.722Z,9.77
2022-10-07T09:16:13.396Z,9.27
2022-10-07T09:19:24.128Z,12.67
2022-10-07T09:22:33.801Z,10.50
2022-10-07T09:25:37.519Z,13.73
2022-10-07T09:28:42.302Z,10.03
2022-10-07T09:31:45.299Z,7.33
2022-10-07T09:34:48.988Z,13.67
2022-10-07T09:38:04.478Z,9.90
2022-10-07T09:41:19.471Z,8.48
2022-10-07T09:44:29.488Z,9.73
2022-10-07T09:47:37.665Z,7.88
2022-10-07T09:50:43.690Z,8.77
2022-10-07T09:54:00.027Z,11.52
2022-10-07T09:57:06.270Z,7.65
2022-10-07T10:00:30.611Z,8.57
2022-10-07T10:03:38.897Z,9.55
2022-10-07T10:06:51.534Z,8.15
2022-10-07T10:10:05.877Z,8.15
2022-10-07T10:13:28.214Z,7.88
2022-10-07T10:16:37.561Z,8.55
2022-10-07T10:19:40.859Z,8.90
2022-10-07T10:22:44.058Z,4.72
2022-10-07T10:26:12.837Z,9.85
2022-10-07T10:29:39.083Z,10.30
2022-10-07T10:33:09.874Z,8.68
2022-10-07T10:36:20.967Z,8.82
2022-10-07T10:39:42.782Z,7.35
2022-10-07T10:42:55.565Z,6.32
2022-10-07T10:46:18.073Z,8.85
2022-10-07T10:49:30.864Z,7.32
2022-10-07T10:52:51.032Z,8.93
2022-10-07T10:56:09.120Z,8.30
2022-10-07T10:59:30.035Z,12.15
2022-10-07T11:03:06.546Z,6.38
2022-10-07T11:06:15.734Z,9.30
2022-10-07T11:09:30.714Z,6.70
2022-10-07T11:12:39.823Z,7.28
2022-10-07T11:15:47.488Z,5.95
2022-10-07T11:18:57.299Z,7.25
2022-10-07T11:22:02.380Z,9.70
2022-10-07T11:25:18.796Z,7.38
2022-10-07T11:28:27.520Z,7.35
2022-10-07T11:31:37.361Z,12.30
2022-10-07T11:34:53.631Z,6.68
2022-10-07T11:38:08.003Z,6.95
2022-10-07T11:41:20.837Z,3.20
2022-10-07T11:44:29.690Z,7.20
2022-10-07T11:47:36.908Z,7.82
2022-10-07T11:50:47.306Z,4.97
2022-10-07T11:53:55.340Z,6.53
2022-10-07T11:57:00.779Z,8.77
2022-10-07T12:00:09.056Z,4.63
2022-10-07T12:03:50.200Z,11.30
2022-10-07T12:07:43.417Z,6.28
2022-10-07T12:10:54.712Z,5.13
2022-10-07T12:14:42.034Z,6.70
2022-10-07T12:17:55.318Z,5.53
2022-10-07T12:21:07.887Z,5.65
2022-10-07T12:24:16.692Z,13.57
2022-10-07T12:27:24.284Z,4.18
2022-10-07T12:30:52.352Z,5.45
2022-10-07T12:33:59.030Z,6.60
2022-10-07T12:37:47.186Z,8.85
2022-10-07T12:41:00.890Z,6.38
2022-10-07T12:44:13.882Z,11.60
2022-10-07T12:47:23.443Z,6.63
2022-10-07T12:50:27.811Z,8.25
2022-10-07T12:53:42.163Z,3.60
2022-10-07T12:56:45.983Z,11.98
2022-10-07T13:00:02.104Z,6.88
2022-10-07T13:03:53.314Z,5.00
2022-10-07T13:07:46.221Z,6.32
2022-10-07T13:11:47.538Z,4.95
2022-10-07T13:15:12.017Z,5.88
2022-10-07T13:18:23.438Z,4.78
2022-10-07T13:21:33.479Z,5.25
2022-10-07T13:24:42.094Z,4.47
2022-10-07T13:27:52.226Z,4.55
2022-10-07T13:30:55.238Z,4.53
2022-10-07T13:34:01.171Z,3.63
2022-10-07T13:37:27.499Z,5.35
2022-10-07T13:40:35.300Z,5.05
2022-10-07T13:43:38.883Z,4.95
2022-10-07T13:46:58.466Z,6.38
2022-10-07T13:50:02.348Z,5.05
2022-10-07T13:53:06.790Z,7.47
2022-10-07T13:56:21.899Z,7.03
2022-10-07T13:59:28.196Z,3.83
2022-10-07T14:02:33.394Z,7.25
2022-10-07T14:05:52.326Z,4.93
2022-10-07T14:08:56.902Z,5.78
2022-10-07T14:12:06.896Z,4.30
2022-10-07T14:15:15.969Z,3.90
2022-10-07T14:18:19.435Z,5.38
2022-10-07T14:21:22.377Z,5.10
2022-10-07T14:24:27.135Z,3.47
2022-10-07T14:27:41.330Z,3.85
2022-10-07T14:31:04.178Z,5.28
2022-10-07T14:34:31.826Z,6.07
2022-10-07T14:37:34.808Z,4.50
2022-10-07T14:40:39.067Z,5.20
2022-10-07T14:43:45.556Z,5.80
2022-10-07T14:46:48.575Z,5.05
2022-10-07T14:49:53.226Z,5.30
2022-10-07T14:52:56.233Z,4.78
2022-10-07T14:56:00.530Z,4.15
2022-10-07T14:59:03.700Z,6.00
2022-10-07T15:02:07.082Z,4.35
2022-10-07T15:05:11.169Z,3.95
2022-10-07T15:08:14.546Z,5.88
2022-10-07T15:11:21.394Z,5.68
2022-10-07T15:14:24.620Z,6.07
2022-10-07T15:17:27.663Z,4.60
2022-10-07T15:20:30.654Z,6.05
2022-10-07T15:23:33.612Z,7.43
2022-10-07T15:26:38.170Z,6.03
2022-10-07T15:29:41.853Z,5.45
2022-10-07T15:32:45.158Z,6.80
2022-10-07T15:35:48.335Z,5.97
2022-10-07T15:38:51.489Z,5.80
2022-10-07T15:41:55.955Z,5.07
2022-10-07T15:44:59.277Z,7.28
2022-10-07T15:48:02.215Z,5.72
2022-10-07T15:51:05.666Z,5.10
2022-10-07T15:54:09.160Z,7.10
2022-10-07T15:57:14.356Z,5.90
2022-10-07T16:00:17.862Z,4.95
2022-10-07T16:03:20.828Z,5.50
2022-10-07T16:06:27.585Z,6.35
2022-10-07T16:09:30.652Z,6.22
2022-10-07T16:12:34.937Z,10.43
2022-10-07T16:15:38.106Z,5.85
2022-10-07T16:18:43.690Z,4.25
2022-10-07T16:21:46.600Z,4.22
2022-10-07T16:24:50.178Z,6.10
2022-10-07T16:28:11.897Z,5.15
2022-10-07T16:31:14.942Z,8.02
2022-10-07T16:34:19.479Z,6.33
2022-10-07T16:37:22.409Z,10.30
2022-10-07T16:40:25.314Z,6.83
2022-10-07T16:43:29.880Z,7.40
2022-10-07T16:46:33.302Z,5.80
2022-10-07T16:49:36.444Z,6.33
2022-10-07T16:52:39.362Z,6.43
2022-10-07T16:55:42.332Z,9.53
2022-10-07T16:58:47.557Z,6.70
2022-10-07T17:01:52.807Z,12.20
2022-10-07T17:04:55.862Z,16.70
2022-10-07T17:07:59.020Z,4.87
2022-10-07T17:11:02.692Z,7.10
2022-10-07T17:14:09.462Z,7.90
2022-10-07T17:17:12.668Z,10.17
2022-10-07T17:20:16.001Z,10.77
2022-10-07T17:23:19.165Z,11.77
2022-10-07T17:26:22.100Z,12.60
2022-10-07T17:29:26.899Z,8.03
2022-10-07T17:32:29.822Z,9.00
2022-10-07T17:35:33.314Z,6.00
2022-10-07T17:38:40.163Z,9.20
2022-10-07T17:41:43.491Z,8.10
2022-10-07T17:44:47.780Z,11.07
2022-10-07T17:47:50.708Z,8.27
2022-10-07T17:50:53.626Z,7.27
2022-10-07T17:53:57.653Z,8.87
2022-10-07T17:57:00.587Z,8.60
2022-10-07T18:00:06.690Z,10.37
2022-10-07T18:03:14.918Z,8.10
2022-10-07T18:06:18.298Z,6.93
2022-10-07T18:09:22.699Z,7.30
2022-10-07T18:12:43.412Z,7.73
2022-10-07T18:15:58.774Z,9.73
2022-10-07T18:19:02.079Z,9.23
2022-10-07T18:22:05.065Z,9.50
2022-10-07T18:25:10.266Z,9.93
2022-10-07T18:28:13.884Z,8.93
2022-10-07T18:31:19.718Z,9.07
2022-10-07T18:34:22.938Z,14.70
2022-10-07T18:37:25.927Z,14.90
2022-10-07T18:40:28.868Z,8.50
2022-10-07T18:43:32.643Z,12.43
2022-10-07T18:46:37.522Z,13.20
2022-10-07T18:49:40.479Z,14.63
2022-10-07T18:52:43.461Z,16.43
2022-10-07T18:55:46.372Z,12.23
2022-10-07T18:58:51.975Z,11.73
2022-10-07T19:01:56.366Z,14.20
2022-10-07T19:04:59.353Z,12.67
2022-10-07T19:08:02.561Z,9.87
2022-10-07T19:11:06.601Z,16.50
2022-10-07T19:14:09.702Z,13.80
2022-10-07T19:17:14.075Z,14.33
2022-10-07T19:20:17.321Z,15.13
2022-10-07T19:23:20.448Z,20.53
2022-10-07T19:26:27.165Z,20.37
2022-10-07T19:29:31.097Z,26.80
2022-10-07T19:32:35.413Z,16.83
2022-10-07T19:35:39.139Z,15.87
2022-10-07T19:38:44.352Z,16.43
2022-10-07T19:41:48.133Z,13.47
2022-10-07T19:44:51.071Z,14.50
2022-10-07T19:47:56.109Z,18.60
2022-10-07T19:51:01.224Z,18.63
2022-10-07T19:54:09.823Z,17.77
2022-10-07T19:57:12.891Z,10.80
2022-10-07T20:00:16.079Z,14.97
2022-10-07T20:03:20.402Z,12.47
2022-10-07T20:06:25.146Z,10.83
2022-10-07T20:09:28.121Z,10.33
2022-10-07T20:12:31.317Z,23.20
2022-10-07T20:15:34.613Z,11.87
2022-10-07T20:18:40.222Z,8.70
2022-10-07T20:21:43.957Z,10.93
2022-10-07T20:24:47.127Z,12.37
2022-10-07T20:27:50.515Z,12.37
2022-10-07T20:30:54.554Z,13.83
2022-10-07T20:34:01.578Z,10.97
2022-10-07T20:37:04.534Z,12.00
2022-10-07T20:40:25.885Z,11.67
2022-10-07T20:43:29.885Z,11.93
2022-10-07T20:46:34.121Z,11.97
2022-10-07T20:49:41.620Z,14.33
2022-10-07T20:52:45.330Z,12.03
2022-10-07T20:55:48.537Z,13.23
2022-10-07T20:58:52.422Z,11.03
2022-10-07T21:01:59.751Z,11.83
2022-10-07T21:05:11.019Z,15.93
2022-10-07T21:08:18.752Z,12.10
2022-10-07T21:11:36.361Z,14.97
2022-10-07T21:14:48.027Z,18.87
2022-10-07T21:17:53.721Z,16.17
2022-10-07T21:20:58.579Z,18.53
2022-10-07T21:24:03.686Z,19.00
2022-10-07T21:27:10.503Z,15.27
2022-10-07T21:30:16.934Z,19.57
2022-10-07T21:33:20.456Z,14.50
2022-10-07T21:36:30.635Z,15.33
2022-10-07T21:39:33.709Z,19.50
2022-10-07T21:42:36.948Z,22.43
2022-10-07T21:45:40.976Z,14.17
2022-10-07T21:48:44.082Z,19.67
2022-10-07T21:51:48.385Z,21.00
2022-10-07T21:54:52.064Z,20.43
2022-10-07T21:57:55.195Z,21.13
2022-10-07T22:00:58.238Z,18.17
2022-10-07T22:04:03.541Z,17.40
2022-10-07T22:07:25.470Z,18.47
2022-10-07T22:10:28.445Z,19.70
2022-10-07T22:13:33.852Z,16.53
2022-10-07T22:16:36.863Z,16.67
2022-10-07T22:19:39.794Z,14.27
2022-10-07T22:22:44.409Z,15.30
2022-10-07T22:25:48.809Z,17.37
2022-10-07T22:28:52.118Z,19.00
2022-10-07T22:31:55.347Z,16.70
2022-10-07T22:35:15.909Z,15.97
2022-10-07T22:38:20.560Z,15.03
2022-10-07T22:41:25.215Z,16.90
2022-10-07T22:44:28.714Z,17.30
2022-10-07T22:47:31.789Z,15.97
2022-10-07T22:50:34.714Z,13.40
2022-10-07T22:53:43.056Z,18.40
2022-10-07T22:56:49.690Z,19.13
2022-10-07T23:00:00.205Z,19.20
2022-10-07T23:03:03.885Z,18.80
2022-10-07T23:06:08.165Z,20.03
2022-10-07T23:09:12.410Z,15.37
2022-10-07T23:12:15.339Z,17.33
2022-10-07T23:15:19.616Z,14.17
2022-10-07T23:18:34.860Z,16.17
2022-10-07T23:21:38.544Z,16.83
2022-10-07T23:24:45.660Z,18.17
2022-10-07T23:28:08.977Z,14.70
2022-10-07T23:31:18.535Z,15.03
2022-10-07T23:34:21.999Z,13.07
2022-10-07T23:37:26.153Z,14.17
2022-10-07T23:40:52.410Z,21.63
2022-10-07T23:44:05.846Z,17.13
2022-10-07T23:47:12.293Z,20.60
2022-10-07T23:50:25.780Z,17.60
2022-10-07T23:53:37.032Z,18.73
2022-10-07T23:56:41.762Z,18.10
2022-10-07T23:59:44.920Z,19.23
